createdAt,value
2023-04-19T00:03:15.751Z,17.30
2023-04-19T00:06:58.509Z,13.23
2023-04-19T00:10:40.425Z,13.65
2023-04-19T00:14:22.175Z,15.10
2023-04-19T00:18:04.063Z,16.05
2023-04-19T00:21:45.833Z,15.32
2023-04-19T00:25:29.390Z,12.82
2023-04-19T00:29:11.145Z,15.18
2023-04-19T00:32:53.451Z,14.60
2023-04-19T00:36:35.419Z,13.65
2023-04-19T00:40:17.165Z,12.95
2023-04-19T00:43:58.915Z,13.38
2023-04-19T00:47:41.352Z,13.57
2023-04-19T00:51:23.568Z,15.20
2023-04-19T00:55:07.069Z,18.40
2023-04-19T00:58:49.315Z,15.55
2023-04-19T01:02:31.404Z,14.98
2023-04-19T01:06:13.497Z,15.30
2023-04-19T01:09:55.420Z,17.20
2023-04-19T01:13:37.358Z,14.43
2023-04-19T01:17:22.281Z,14.13
2023-04-19T01:21:05.054Z,12.15
2023-04-19T01:24:46.834Z,16.33
2023-04-19T01:28:28.987Z,14.02
2023-04-19T01:32:10.818Z,15.65
2023-04-19T01:35:52.526Z,14.27
2023-04-19T01:39:34.339Z,15.40
2023-04-19T01:43:17.647Z,12.95
2023-04-19T01:46:59.419Z,13.98
2023-04-19T01:50:41.203Z,14.32
2023-04-19T01:54:22.942Z,12.25
2023-04-19T01:58:04.676Z,14.43
2023-04-19T02:01:46.537Z,14.63
2023-04-19T02:05:28.287Z,11.98
2023-04-19T02:09:10.078Z,14.77
2023-04-19T02:12:51.805Z,13.18
2023-04-19T02:16:35.621Z,16.00
2023-04-19T02:20:17.893Z,17.00
2023-04-19T02:23:59.743Z,16.88
2023-04-19T02:27:41.465Z,14.68
2023-04-19T02:31:23.397Z,17.80
2023-04-19T02:35:05.644Z,15.93
2023-04-19T02:38:47.402Z,18.00
2023-04-19T02:42:29.138Z,14.98
2023-04-19T02:46:10.981Z,14.75
2023-04-19T02:49:52.743Z,15.80
2023-04-19T02:53:36.958Z,17.77
2023-04-19T02:57:18.700Z,24.67
2023-04-19T03:01:00.656Z,16.13
2023-04-19T03:04:43.405Z,24.08
2023-04-19T03:08:25.200Z,17.02
2023-04-19T03:12:08.015Z,23.48
2023-04-19T03:15:50.891Z,21.17
2023-04-19T03:19:32.617Z,19.02
2023-04-19T03:23:14.373Z,19.67
2023-04-19T03:26:56.866Z,18.48
2023-04-19T03:30:38.615Z,26.35
2023-04-19T03:34:20.375Z,26.08
2023-04-19T03:38:02.183Z,25.55
2023-04-19T03:41:43.935Z,23.75
2023-04-19T03:45:25.816Z,25.25
2023-04-19T03:49:07.536Z,22.40
2023-04-19T03:52:49.464Z,19.25
2023-04-19T03:56:31.211Z,20.55
2023-04-19T04:00:13.455Z,20.85
2023-04-19T04:03:55.772Z,22.77
2023-04-19T04:07:37.644Z,26.27
2023-04-19T04:11:19.460Z,23.38
2023-04-19T04:15:01.303Z,24.92
2023-04-19T04:18:43.138Z,23.85
2023-04-19T04:22:24.915Z,27.10
2023-04-19T04:26:09.863Z,40.35
2023-04-19T04:29:51.639Z,23.92
2023-04-19T04:33:33.405Z,27.55
2023-04-19T04:37:16.295Z,30.52
2023-04-19T04:40:59.357Z,28.08
2023-04-19T04:44:42.190Z,30.98
2023-04-19T04:48:24.349Z,28.33
2023-04-19T04:52:06.590Z,29.73
2023-04-19T04:55:48.362Z,29.92
2023-04-19T04:59:30.163Z,21.85
2023-04-19T05:03:12.071Z,27.02
2023-04-19T05:06:53.938Z,35.10
2023-04-19T05:10:36.009Z,28.95
2023-04-19T05:14:17.962Z,30.83
2023-04-19T05:17:59.866Z,29.92
2023-04-19T05:21:41.646Z,29.45
2023-04-19T05:25:23.442Z,24.88
2023-04-19T05:29:05.396Z,26.63
2023-04-19T05:32:47.523Z,26.65
2023-04-19T05:36:29.697Z,27.10
2023-04-19T05:40:11.752Z,36.20
2023-04-19T05:43:53.501Z,31.55
2023-04-19T05:47:35.490Z,28.67
2023-04-19T05:51:18.944Z,26.70
2023-04-19T05:55:01.482Z,28.25
2023-04-19T05:58:43.288Z,25.67
2023-04-19T06:02:25.131Z,28.77
2023-04-19T06:06:07.224Z,28.65
2023-04-19T06:09:49.240Z,31.42
2023-04-19T06:13:31.232Z,29.38
2023-04-19T06:17:13.004Z,27.65
2023-04-19T06:20:54.958Z,30.58
2023-04-19T06:24:36.684Z,33.08
2023-04-19T06:28:18.916Z,32.20
2023-04-19T06:32:00.762Z,31.33
2023-04-19T06:35:42.513Z,29.20
2023-04-19T06:39:24.262Z,39.38
2023-04-19T06:43:06.174Z,36.10
2023-04-19T06:46:48.070Z,33.00
2023-04-19T06:50:29.990Z,35.38
2023-04-19T06:54:11.807Z,34.08
2023-04-19T06:57:53.562Z,48.63
2023-04-19T07:01:35.482Z,40.08
2023-04-19T07:05:17.400Z,40.20
2023-04-19T07:08:59.132Z,40.13
2023-04-19T07:12:40.866Z,37.38
2023-04-19T07:16:22.782Z,39.47
2023-04-19T07:20:06.596Z,39.53
2023-04-19T07:23:49.482Z,42.20
2023-04-19T07:27:31.212Z,38.42
2023-04-19T07:31:16.850Z,42.60
2023-04-19T07:34:58.595Z,40.72
2023-04-19T07:38:40.312Z,44.55
2023-04-19T07:42:22.057Z,39.35
2023-04-19T07:46:10.943Z,41.03
2023-04-19T07:49:53.628Z,37.97
2023-04-19T07:53:35.407Z,39.30
2023-04-19T07:57:17.373Z,39.47
2023-04-19T08:00:59.220Z,42.60
2023-04-19T08:04:41.265Z,42.55
2023-04-19T08:08:24.653Z,46.05
2023-04-19T08:12:06.686Z,41.08
2023-04-19T08:19:33.428Z,42.50
2023-04-19T08:23:24.147Z,43.22
2023-04-19T08:27:10.491Z,38.85
2023-04-19T08:30:52.238Z,41.97
2023-04-19T08:34:37.463Z,43.33
2023-04-19T08:38:19.302Z,40.40
2023-04-19T08:42:11.104Z,38.70
2023-04-19T08:46:00.394Z,36.55
2023-04-19T08:49:43.844Z,39.00
2023-04-19T08:53:29.650Z,33.97
2023-04-19T08:57:12.505Z,34.45
2023-04-19T09:00:54.236Z,34.15
2023-04-19T09:04:37.297Z,39.10
2023-04-19T09:08:25.112Z,33.75
2023-04-19T09:12:20.369Z,38.83
2023-04-19T09:16:02.434Z,35.03
2023-04-19T09:19:49.284Z,33.03
2023-04-19T09:27:13.024Z,31.42
2023-04-19T09:31:03.498Z,31.35
2023-04-19T09:34:59.897Z,32.85
2023-04-19T09:38:49.264Z,32.17
2023-04-19T09:46:33.683Z,31.30
2023-04-19T09:50:23.983Z,24.92
2023-04-19T09:54:07.180Z,26.48
2023-04-19T09:57:49.118Z,30.83
2023-04-19T10:01:39.365Z,24.77
2023-04-19T10:05:25.664Z,28.40
2023-04-19T10:16:39.335Z,24.98
2023-04-19T10:20:27.787Z,25.70
2023-04-19T10:24:12.595Z,23.80
2023-04-19T10:27:54.387Z,24.75
2023-04-19T10:31:36.143Z,22.77
2023-04-19T10:35:23.432Z,22.45
2023-04-19T10:39:25.093Z,20.13
2023-04-19T10:43:17.807Z,22.35
2023-04-19T10:46:59.964Z,22.38
2023-04-19T10:51:01.238Z,17.05
2023-04-19T10:54:42.945Z,19.35
2023-04-19T10:58:24.685Z,19.15
2023-04-19T11:02:28.292Z,21.33
2023-04-19T11:06:18.882Z,20.70
2023-04-19T11:10:00.745Z,18.67
2023-04-19T11:13:43.445Z,15.07
2023-04-19T11:17:28.453Z,15.40
2023-04-19T11:21:14.815Z,17.88
2023-04-19T11:24:56.697Z,14.00
2023-04-19T11:28:39.204Z,15.40
2023-04-19T11:32:22.513Z,13.52
2023-04-19T11:36:11.212Z,15.27
2023-04-19T11:39:52.974Z,16.58
2023-04-19T11:43:38.160Z,13.02
2023-04-19T11:47:20.413Z,14.93
2023-04-19T11:51:02.977Z,14.52
2023-04-19T11:54:46.799Z,14.25
2023-04-19T11:58:29.922Z,12.45
2023-04-19T12:02:12.649Z,11.55
2023-04-19T12:06:08.897Z,16.05
2023-04-19T12:09:50.923Z,12.30
2023-04-19T12:13:33.258Z,14.48
2023-04-19T12:17:15.850Z,15.60
2023-04-19T12:20:59.465Z,15.10
2023-04-19T12:24:42.969Z,15.48
2023-04-19T12:28:24.729Z,12.35
2023-04-19T12:32:07.105Z,15.13
2023-04-19T12:35:49.005Z,14.20
2023-04-19T12:39:31.030Z,16.98
2023-04-19T12:43:12.772Z,17.20
2023-04-19T12:46:57.569Z,13.60
2023-04-19T12:50:39.611Z,16.48
2023-04-19T12:54:21.314Z,13.35
2023-04-19T12:58:03.113Z,15.90
2023-04-19T13:01:44.939Z,16.73
2023-04-19T13:05:26.740Z,16.20
2023-04-19T13:09:14.190Z,15.88
2023-04-19T13:12:57.161Z,15.15
2023-04-19T13:16:39.029Z,14.93
2023-04-19T13:20:21.007Z,16.40
2023-04-19T13:24:02.728Z,14.93
2023-04-19T13:27:44.528Z,15.40
2023-04-19T13:31:27.120Z,14.88
2023-04-19T13:35:09.366Z,15.52
2023-04-19T13:38:51.234Z,15.68
2023-04-19T13:42:32.980Z,15.20
2023-04-19T13:46:15.307Z,14.25
2023-04-19T13:49:57.198Z,13.82
2023-04-19T13:53:40.786Z,13.80
2023-04-19T13:57:22.668Z,13.95
2023-04-19T14:01:04.561Z,12.65
2023-04-19T14:04:46.449Z,14.30
2023-04-19T14:08:28.217Z,13.77
2023-04-19T14:12:10.434Z,13.70
2023-04-19T14:15:52.190Z,17.25
2023-04-19T14:19:33.955Z,14.27
2023-04-19T14:23:15.765Z,14.43
2023-04-19T14:30:45.281Z,17.48
2023-04-19T14:34:27.261Z,15.77
2023-04-19T14:38:08.968Z,15.13
2023-04-19T14:41:51.343Z,14.73
2023-04-19T14:45:33.101Z,12.68
2023-04-19T14:49:15.039Z,15.38
2023-04-19T14:52:56.900Z,13.07
2023-04-19T14:56:38.934Z,11.05
2023-04-19T15:00:20.910Z,13.23
2023-04-19T15:04:02.819Z,13.35
2023-04-19T15:07:44.752Z,14.40
2023-04-19T15:11:26.509Z,14.68
2023-04-19T15:15:08.623Z,11.40
2023-04-19T15:18:50.440Z,10.43
2023-04-19T15:22:35.222Z,8.93
2023-04-19T15:26:17.301Z,10.40
2023-04-19T15:29:59.046Z,8.38
2023-04-19T15:33:40.809Z,8.05
2023-04-19T15:37:22.740Z,11.40
2023-04-19T15:41:04.807Z,9.35
2023-04-19T15:44:46.557Z,8.98
2023-04-19T15:48:28.713Z,9.07
2023-04-19T15:52:10.407Z,11.18
2023-04-19T15:55:53.310Z,8.50
2023-04-19T15:59:35.980Z,10.60
2023-04-19T16:03:17.985Z,7.65
2023-04-19T16:06:59.828Z,7.78
2023-04-19T16:10:41.580Z,6.55
2023-04-19T16:14:24.393Z,5.93
2023-04-19T16:18:06.465Z,7.03
2023-04-19T16:21:48.365Z,8.43
2023-04-19T16:25:31.164Z,7.57
2023-04-19T16:29:12.889Z,9.27
2023-04-19T16:32:58.678Z,10.10
2023-04-19T16:36:41.964Z,10.47
2023-04-19T16:40:23.940Z,7.22
2023-04-19T16:44:07.877Z,8.45
2023-04-19T16:47:49.695Z,6.22
2023-04-19T16:51:31.812Z,7.50
2023-04-19T16:55:14.916Z,8.23
2023-04-19T16:58:56.656Z,11.73
2023-04-19T17:02:38.550Z,7.53
2023-04-19T17:06:20.482Z,9.38
2023-04-19T17:10:02.321Z,7.82
2023-04-19T17:13:44.035Z,7.45
2023-04-19T17:17:25.872Z,8.10
2023-04-19T17:21:07.688Z,6.90
2023-04-19T17:24:49.406Z,6.25
2023-04-19T17:28:31.161Z,6.97
2023-04-19T17:32:12.927Z,7.25
2023-04-19T17:35:54.632Z,7.65
2023-04-19T17:39:36.435Z,8.52
2023-04-19T17:43:18.152Z,8.70
2023-04-19T17:47:00.013Z,6.57
2023-04-19T17:50:41.788Z,7.50
2023-04-19T17:54:23.797Z,10.60
2023-04-19T17:58:06.067Z,8.45
2023-04-19T18:01:47.868Z,6.75
2023-04-19T18:05:29.625Z,6.50
2023-04-19T18:09:13.108Z,7.93
2023-04-19T18:12:54.873Z,6.22
2023-04-19T18:16:36.689Z,8.43
2023-04-19T18:20:19.981Z,7.88
2023-04-19T18:24:01.744Z,6.38
2023-04-19T18:27:43.975Z,6.72
2023-04-19T18:31:25.794Z,5.47
2023-04-19T18:35:09.982Z,6.57
2023-04-19T18:38:51.795Z,4.68
2023-04-19T18:42:33.648Z,6.85
2023-04-19T18:46:15.818Z,6.82
2023-04-19T18:50:05.217Z,6.78
2023-04-19T18:53:49.311Z,7.47
2023-04-19T18:57:34.497Z,7.72
2023-04-19T19:01:16.700Z,8.18
2023-04-19T19:05:01.963Z,6.72
2023-04-19T19:08:44.444Z,7.07
2023-04-19T19:12:26.339Z,5.47
2023-04-19T19:16:08.120Z,5.22
2023-04-19T19:19:50.082Z,5.53
2023-04-19T19:23:38.313Z,7.22
2023-04-19T19:27:24.456Z,5.70
2023-04-19T19:31:06.662Z,8.15
2023-04-19T19:38:37.480Z,4.43
2023-04-19T19:42:19.733Z,5.35
2023-04-19T19:46:02.267Z,9.75
2023-04-19T19:50:05.852Z,8.82
2023-04-19T19:53:45.754Z,9.25
2023-04-19T20:01:12.337Z,8.30
2023-04-19T20:04:54.386Z,9.60
2023-04-19T20:08:40.125Z,6.00
2023-04-19T20:12:24.423Z,5.60
2023-04-19T20:16:06.847Z,6.72
2023-04-19T20:19:52.135Z,5.65
2023-04-19T20:23:33.869Z,7.60
2023-04-19T20:27:15.638Z,7.90
2023-04-19T20:30:57.642Z,8.55
2023-04-19T20:34:39.842Z,6.88
2023-04-19T20:38:23.354Z,6.38
2023-04-19T20:42:07.226Z,6.20
2023-04-19T20:45:49.012Z,5.88
2023-04-19T20:49:30.963Z,4.90
2023-04-19T20:53:12.737Z,6.50
2023-04-19T20:56:59.579Z,6.55
2023-04-19T21:00:41.377Z,8.82
2023-04-19T21:04:23.173Z,7.95
2023-04-19T21:08:05.312Z,5.15
2023-04-19T21:11:47.043Z,6.32
2023-04-19T21:15:28.879Z,9.02
2023-04-19T21:19:10.652Z,8.77
2023-04-19T21:22:52.505Z,8.68
2023-04-19T21:26:34.466Z,7.10
2023-04-19T21:30:16.410Z,8.95
2023-04-19T21:33:58.178Z,8.60
2023-04-19T21:37:40.014Z,8.43
2023-04-19T21:41:21.766Z,9.18
2023-04-19T21:45:03.792Z,8.38
2023-04-19T21:48:45.516Z,5.90
2023-04-19T21:52:27.297Z,9.20
2023-04-19T21:56:09.052Z,8.90
2023-04-19T21:59:51.127Z,6.78
2023-04-19T22:03:33.334Z,9.63
2023-04-19T22:07:17.941Z,9.32
2023-04-19T22:11:01.170Z,8.68
2023-04-19T22:14:42.945Z,7.07
2023-04-19T22:18:24.723Z,8.38
2023-04-19T22:22:06.454Z,8.48
2023-04-19T22:25:48.183Z,10.00
2023-04-19T22:29:32.139Z,14.07
2023-04-19T22:33:13.837Z,8.55
2023-04-19T22:36:55.697Z,12.23
2023-04-19T22:40:37.649Z,9.65
2023-04-19T22:44:19.390Z,7.32
2023-04-19T22:48:01.536Z,10.52
2023-04-19T22:51:44.821Z,8.65
2023-04-19T22:55:26.631Z,6.57
2023-04-19T22:59:08.441Z,5.60
2023-04-19T23:02:50.302Z,6.30
2023-04-19T23:06:32.538Z,7.38
2023-04-19T23:10:14.322Z,10.80
2023-04-19T23:13:56.379Z,10.63
2023-04-19T23:17:39.346Z,8.48
2023-04-19T23:21:21.195Z,9.38
2023-04-19T23:25:03.053Z,5.25
2023-04-19T23:28:44.835Z,11.25
2023-04-19T23:32:26.606Z,6.05
2023-04-19T23:36:08.605Z,7.70
2023-04-19T23:39:50.315Z,4.93
2023-04-19T23:43:32.106Z,6.05
2023-04-19T23:47:14.135Z,8.23
2023-04-19T23:50:55.982Z,7.22
2023-04-19T23:54:37.708Z,7.95
2023-04-19T23:58:19.467Z,9.07
